sensor_id;sensor_type;location;lat;lon;timestamp;P1;durP1;ratioP1;P2;durP2;ratioP2
42884;SDS011;28534;48.100;11.584;2023-02-20T00:03:28;0.88;;;0.80;;
42884;SDS011;28534;48.100;11.584;2023-02-20T00:08:31;1.17;;;0.98;;
42884;SDS011;28534;48.100;11.584;2023-02-20T00:13:34;1.83;;;0.90;;
42884;SDS011;28534;48.100;11.584;2023-02-20T00:18:36;1.50;;;0.80;;
42884;SDS011;28534;48.100;11.584;2023-02-20T00:23:37;1.30;;;0.90;;
42884;SDS011;28534;48.100;11.584;2023-02-20T00:28:41;1.30;;;0.98;;
42884;SDS011;28534;48.100;11.584;2023-02-20T00:33:44;1.20;;;1.00;;
42884;SDS011;28534;48.100;11.584;2023-02-20T00:38:46;1.40;;;1.05;;
42884;SDS011;28534;48.100;11.584;2023-02-20T00:43:49;0.95;;;0.80;;
42884;SDS011;28534;48.100;11.584;2023-02-20T00:48:50;0.82;;;0.80;;
42884;SDS011;28534;48.100;11.584;2023-02-20T00:53:52;1.38;;;0.95;;
42884;SDS011;28534;48.100;11.584;2023-02-20T00:58:55;1.88;;;1.00;;
42884;SDS011;28534;48.100;11.584;2023-02-20T01:03:57;0.80;;;0.75;;
42884;SDS011;28534;48.100;11.584;2023-02-20T01:08:59;0.80;;;0.70;;
42884;SDS011;28534;48.100;11.584;2023-02-20T01:14:02;1.45;;;0.88;;
42884;SDS011;28534;48.100;11.584;2023-02-20T01:19:04;0.70;;;0.70;;
42884;SDS011;28534;48.100;11.584;2023-02-20T01:24:06;0.93;;;0.90;;
42884;SDS011;28534;48.100;11.584;2023-02-20T01:29:09;1.20;;;0.90;;
42884;SDS011;28534;48.100;11.584;2023-02-20T01:34:11;0.90;;;0.80;;
42884;SDS011;28534;48.100;11.584;2023-02-20T01:39:15;0.73;;;0.73;;
42884;SDS011;28534;48.100;11.584;2023-02-20T01:44:20;1.38;;;0.90;;
42884;SDS011;28534;48.100;11.584;2023-02-20T01:49:26;0.85;;;0.80;;
42884;SDS011;28534;48.100;11.584;2023-02-20T01:54:31;0.95;;;0.80;;
42884;SDS011;28534;48.100;11.584;2023-02-20T01:59:35;1.48;;;0.90;;
42884;SDS011;28534;48.100;11.584;2023-02-20T02:04:40;1.13;;;0.90;;
42884;SDS011;28534;48.100;11.584;2023-02-20T02:09:46;0.85;;;0.73;;
42884;SDS011;28534;48.100;11.584;2023-02-20T02:14:54;0.70;;;0.70;;
42884;SDS011;28534;48.100;11.584;2023-02-20T02:25:37;1.48;;;0.88;;
42884;SDS011;28534;48.100;11.584;2023-02-20T02:30:53;0.95;;;0.85;;
42884;SDS011;28534;48.100;11.584;2023-02-20T02:36:28;1.02;;;0.90;;
42884;SDS011;28534;48.100;11.584;2023-02-20T02:41:46;0.80;;;0.80;;
42884;SDS011;28534;48.100;11.584;2023-02-20T02:46:55;0.70;;;0.70;;
42884;SDS011;28534;48.100;11.584;2023-02-20T02:52:02;0.90;;;0.80;;
42884;SDS011;28534;48.100;11.584;2023-02-20T02:57:19;1.38;;;0.88;;
42884;SDS011;28534;48.100;11.584;2023-02-20T03:02:23;0.80;;;0.80;;
42884;SDS011;28534;48.100;11.584;2023-02-20T03:07:31;1.60;;;0.80;;
42884;SDS011;28534;48.100;11.584;2023-02-20T03:12:37;0.80;;;0.80;;
42884;SDS011;28534;48.100;11.584;2023-02-20T03:17:48;1.17;;;0.75;;
42884;SDS011;28534;48.100;11.584;2023-02-20T03:22:58;1.10;;;0.80;;
42884;SDS011;28534;48.100;11.584;2023-02-20T03:28:04;0.85;;;0.80;;
42884;SDS011;28534;48.100;11.584;2023-02-20T03:33:11;0.90;;;0.80;;
42884;SDS011;28534;48.100;11.584;2023-02-20T03:38:36;1.08;;;0.70;;
42884;SDS011;28534;48.100;11.584;2023-02-20T03:43:58;0.85;;;0.73;;
42884;SDS011;28534;48.100;11.584;2023-02-20T03:49:05;0.70;;;0.70;;
42884;SDS011;28534;48.100;11.584;2023-02-20T03:54:10;0.70;;;0.70;;
42884;SDS011;28534;48.100;11.584;2023-02-20T03:59:13;1.10;;;0.82;;
42884;SDS011;28534;48.100;11.584;2023-02-20T04:04:18;1.00;;;0.80;;
42884;SDS011;28534;48.100;11.584;2023-02-20T04:09:25;0.80;;;0.70;;
42884;SDS011;28534;48.100;11.584;2023-02-20T04:14:30;0.80;;;0.80;;
42884;SDS011;28534;48.100;11.584;2023-02-20T04:19:34;1.02;;;0.85;;
42884;SDS011;28534;48.100;11.584;2023-02-20T04:24:39;0.80;;;0.70;;
42884;SDS011;28534;48.100;11.584;2023-02-20T04:29:44;0.60;;;0.60;;
42884;SDS011;28534;48.100;11.584;2023-02-20T04:34:46;0.60;;;0.60;;
42884;SDS011;28534;48.100;11.584;2023-02-20T04:39:49;0.80;;;0.70;;
42884;SDS011;28534;48.100;11.584;2023-02-20T04:44:51;0.90;;;0.75;;
42884;SDS011;28534;48.100;11.584;2023-02-20T04:49:53;0.60;;;0.60;;
42884;SDS011;28534;48.100;11.584;2023-02-20T04:54:56;3.03;;;0.85;;
42884;SDS011;28534;48.100;11.584;2023-02-20T04:59:57;1.52;;;0.95;;
42884;SDS011;28534;48.100;11.584;2023-02-20T05:04:59;6.75;;;1.60;;
42884;SDS011;28534;48.100;11.584;2023-02-20T05:10:02;6.93;;;1.60;;
42884;SDS011;28534;48.100;11.584;2023-02-20T05:15:04;9.43;;;1.75;;
42884;SDS011;28534;48.100;11.584;2023-02-20T05:20:07;9.45;;;2.03;;
42884;SDS011;28534;48.100;11.584;2023-02-20T05:25:11;11.45;;;1.95;;
42884;SDS011;28534;48.100;11.584;2023-02-20T05:30:13;8.90;;;1.65;;
42884;SDS011;28534;48.100;11.584;2023-02-20T05:35:15;6.22;;;1.67;;
42884;SDS011;28534;48.100;11.584;2023-02-20T05:40:18;5.05;;;1.65;;
42884;SDS011;28534;48.100;11.584;2023-02-20T05:45:20;7.18;;;1.70;;
42884;SDS011;28534;48.100;11.584;2023-02-20T05:50:22;12.00;;;2.10;;
42884;SDS011;28534;48.100;11.584;2023-02-20T05:55:25;10.25;;;1.83;;
42884;SDS011;28534;48.100;11.584;2023-02-20T06:00:26;6.40;;;1.80;;
42884;SDS011;28534;48.100;11.584;2023-02-20T06:05:28;6.07;;;1.73;;
42884;SDS011;28534;48.100;11.584;2023-02-20T06:10:31;8.32;;;2.00;;
42884;SDS011;28534;48.100;11.584;2023-02-20T06:15:33;6.95;;;1.77;;
42884;SDS011;28534;48.100;11.584;2023-02-20T06:20:35;7.85;;;2.15;;
42884;SDS011;28534;48.100;11.584;2023-02-20T06:25:38;8.15;;;1.67;;
42884;SDS011;28534;48.100;11.584;2023-02-20T06:30:40;7.55;;;2.13;;
42884;SDS011;28534;48.100;11.584;2023-02-20T06:35:42;9.73;;;1.92;;
42884;SDS011;28534;48.100;11.584;2023-02-20T06:40:45;9.32;;;2.10;;
42884;SDS011;28534;48.100;11.584;2023-02-20T06:45:47;8.10;;;1.85;;
42884;SDS011;28534;48.100;11.584;2023-02-20T06:50:49;7.35;;;1.90;;
42884;SDS011;28534;48.100;11.584;2023-02-20T06:55:55;6.97;;;1.90;;
42884;SDS011;28534;48.100;11.584;2023-02-20T07:00:57;9.57;;;2.15;;
42884;SDS011;28534;48.100;11.584;2023-02-20T07:05:59;10.77;;;2.05;;
42884;SDS011;28534;48.100;11.584;2023-02-20T07:11:02;5.90;;;1.98;;
42884;SDS011;28534;48.100;11.584;2023-02-20T07:16:04;8.88;;;2.22;;
42884;SDS011;28534;48.100;11.584;2023-02-20T07:21:06;14.73;;;2.55;;
42884;SDS011;28534;48.100;11.584;2023-02-20T07:26:17;8.32;;;1.98;;
42884;SDS011;28534;48.100;11.584;2023-02-20T07:31:19;14.25;;;2.65;;
42884;SDS011;28534;48.100;11.584;2023-02-20T07:36:21;13.10;;;2.50;;
42884;SDS011;28534;48.100;11.584;2023-02-20T07:41:24;17.98;;;2.97;;
42884;SDS011;28534;48.100;11.584;2023-02-20T07:46:30;12.63;;;2.70;;
42884;SDS011;28534;48.100;11.584;2023-02-20T07:51:33;8.77;;;2.08;;
42884;SDS011;28534;48.100;11.584;2023-02-20T07:56:36;13.27;;;2.15;;
42884;SDS011;28534;48.100;11.584;2023-02-20T08:01:40;10.82;;;2.28;;
42884;SDS011;28534;48.100;11.584;2023-02-20T08:06:41;8.00;;;2.00;;
42884;SDS011;28534;48.100;11.584;2023-02-20T08:11:44;10.30;;;2.03;;
42884;SDS011;28534;48.100;11.584;2023-02-20T08:16:46;7.97;;;2.03;;
42884;SDS011;28534;48.100;11.584;2023-02-20T08:21:48;10.80;;;2.15;;
42884;SDS011;28534;48.100;11.584;2023-02-20T08:26:51;11.55;;;2.10;;
42884;SDS011;28534;48.100;11.584;2023-02-20T08:31:53;7.40;;;2.30;;
42884;SDS011;28534;48.100;11.584;2023-02-20T08:36:55;8.95;;;2.05;;
42884;SDS011;28534;48.100;11.584;2023-02-20T08:41:58;7.70;;;2.10;;
42884;SDS011;28534;48.100;11.584;2023-02-20T08:46:59;6.68;;;2.00;;
42884;SDS011;28534;48.100;11.584;2023-02-20T08:52:01;12.10;;;2.47;;
42884;SDS011;28534;48.100;11.584;2023-02-20T08:57:06;9.77;;;2.00;;
42884;SDS011;28534;48.100;11.584;2023-02-20T09:02:08;6.18;;;1.83;;
42884;SDS011;28534;48.100;11.584;2023-02-20T09:07:16;7.45;;;1.73;;
42884;SDS011;28534;48.100;11.584;2023-02-20T09:12:19;8.95;;;1.95;;
42884;SDS011;28534;48.100;11.584;2023-02-20T09:17:21;12.20;;;2.28;;
42884;SDS011;28534;48.100;11.584;2023-02-20T09:22:23;8.38;;;1.88;;
42884;SDS011;28534;48.100;11.584;2023-02-20T09:27:26;6.85;;;1.95;;
42884;SDS011;28534;48.100;11.584;2023-02-20T09:32:28;6.22;;;1.75;;
42884;SDS011;28534;48.100;11.584;2023-02-20T09:37:30;6.88;;;2.03;;
42884;SDS011;28534;48.100;11.584;2023-02-20T09:42:34;9.02;;;2.00;;
42884;SDS011;28534;48.100;11.584;2023-02-20T09:47:47;5.38;;;1.75;;
42884;SDS011;28534;48.100;11.584;2023-02-20T09:52:57;7.05;;;1.90;;
42884;SDS011;28534;48.100;11.584;2023-02-20T09:58:05;4.00;;;1.58;;
42884;SDS011;28534;48.100;11.584;2023-02-20T10:03:15;5.43;;;1.35;;
42884;SDS011;28534;48.100;11.584;2023-02-20T10:08:22;5.07;;;1.75;;
42884;SDS011;28534;48.100;11.584;2023-02-20T10:13:28;6.97;;;1.80;;
42884;SDS011;28534;48.100;11.584;2023-02-20T10:18:40;4.85;;;1.75;;
42884;SDS011;28534;48.100;11.584;2023-02-20T10:23:52;4.97;;;1.40;;
42884;SDS011;28534;48.100;11.584;2023-02-20T10:29:00;3.25;;;1.40;;
42884;SDS011;28534;48.100;11.584;2023-02-20T10:34:15;7.90;;;1.70;;
42884;SDS011;28534;48.100;11.584;2023-02-20T10:39:22;4.93;;;1.73;;
42884;SDS011;28534;48.100;11.584;2023-02-20T10:44:27;3.50;;;1.30;;
42884;SDS011;28534;48.100;11.584;2023-02-20T10:49:34;6.05;;;1.50;;
42884;SDS011;28534;48.100;11.584;2023-02-20T10:54:42;5.30;;;1.70;;
42884;SDS011;28534;48.100;11.584;2023-02-20T10:59:50;4.32;;;1.77;;
42884;SDS011;28534;48.100;11.584;2023-02-20T11:05:00;3.78;;;1.33;;
42884;SDS011;28534;48.100;11.584;2023-02-20T11:10:06;3.60;;;1.38;;
42884;SDS011;28534;48.100;11.584;2023-02-20T11:15:10;3.95;;;1.50;;
42884;SDS011;28534;48.100;11.584;2023-02-20T11:25:45;4.05;;;1.88;;
42884;SDS011;28534;48.100;11.584;2023-02-20T11:30:49;4.10;;;1.70;;
42884;SDS011;28534;48.100;11.584;2023-02-20T11:36:08;5.70;;;1.67;;
42884;SDS011;28534;48.100;11.584;2023-02-20T11:41:18;5.78;;;1.50;;
42884;SDS011;28534;48.100;11.584;2023-02-20T11:46:26;5.47;;;1.85;;
42884;SDS011;28534;48.100;11.584;2023-02-20T11:51:30;6.78;;;2.00;;
42884;SDS011;28534;48.100;11.584;2023-02-20T11:56:36;4.72;;;1.70;;
42884;SDS011;28534;48.100;11.584;2023-02-20T12:01:40;3.83;;;1.73;;
42884;SDS011;28534;48.100;11.584;2023-02-20T12:06:42;5.85;;;1.95;;
42884;SDS011;28534;48.100;11.584;2023-02-20T12:11:43;8.23;;;1.80;;
42884;SDS011;28534;48.100;11.584;2023-02-20T12:16:53;7.00;;;1.67;;
42884;SDS011;28534;48.100;11.584;2023-02-20T12:22:03;4.72;;;1.48;;
42884;SDS011;28534;48.100;11.584;2023-02-20T12:27:24;3.60;;;1.25;;
42884;SDS011;28534;48.100;11.584;2023-02-20T12:32:37;1.92;;;1.02;;
42884;SDS011;28534;48.100;11.584;2023-02-20T12:37:49;1.65;;;1.20;;
42884;SDS011;28534;48.100;11.584;2023-02-20T12:43:04;4.68;;;1.15;;
42884;SDS011;28534;48.100;11.584;2023-02-20T12:48:21;1.30;;;0.88;;
42884;SDS011;28534;48.100;11.584;2023-02-20T12:53:36;1.40;;;0.98;;
42884;SDS011;28534;48.100;11.584;2023-02-20T12:58:48;2.95;;;1.00;;
42884;SDS011;28534;48.100;11.584;2023-02-20T13:03:59;2.50;;;1.15;;
42884;SDS011;28534;48.100;11.584;2023-02-20T13:09:08;1.48;;;0.90;;
42884;SDS011;28534;48.100;11.584;2023-02-20T13:14:23;2.35;;;0.93;;
42884;SDS011;28534;48.100;11.584;2023-02-20T13:19:34;1.27;;;0.90;;
42884;SDS011;28534;48.100;11.584;2023-02-20T13:24:40;1.40;;;0.80;;
42884;SDS011;28534;48.100;11.584;2023-02-20T13:29:54;1.33;;;0.90;;
42884;SDS011;28534;48.100;11.584;2023-02-20T13:40:35;1.40;;;0.88;;
42884;SDS011;28534;48.100;11.584;2023-02-20T13:45:39;1.98;;;0.80;;
42884;SDS011;28534;48.100;11.584;2023-02-20T13:50:43;1.77;;;0.90;;
42884;SDS011;28534;48.100;11.584;2023-02-20T13:55:45;2.03;;;0.88;;
42884;SDS011;28534;48.100;11.584;2023-02-20T14:00:48;1.45;;;0.90;;
42884;SDS011;28534;48.100;11.584;2023-02-20T14:06:03;1.50;;;0.90;;
42884;SDS011;28534;48.100;11.584;2023-02-20T14:11:08;1.95;;;0.70;;
42884;SDS011;28534;48.100;11.584;2023-02-20T14:16:26;1.67;;;0.93;;
42884;SDS011;28534;48.100;11.584;2023-02-20T14:21:31;1.27;;;0.70;;
42884;SDS011;28534;48.100;11.584;2023-02-20T14:26:35;1.15;;;0.90;;
42884;SDS011;28534;48.100;11.584;2023-02-20T14:31:36;1.10;;;0.85;;
42884;SDS011;28534;48.100;11.584;2023-02-20T14:36:44;1.08;;;0.80;;
42884;SDS011;28534;48.100;11.584;2023-02-20T14:41:57;0.90;;;0.80;;
42884;SDS011;28534;48.100;11.584;2023-02-20T14:47:03;1.25;;;0.90;;
42884;SDS011;28534;48.100;11.584;2023-02-20T14:52:18;1.23;;;0.90;;
42884;SDS011;28534;48.100;11.584;2023-02-20T14:57:21;1.92;;;0.90;;
42884;SDS011;28534;48.100;11.584;2023-02-20T15:02:24;2.30;;;0.90;;
42884;SDS011;28534;48.100;11.584;2023-02-20T15:07:29;3.53;;;0.90;;
42884;SDS011;28534;48.100;11.584;2023-02-20T15:12:31;1.25;;;0.82;;
42884;SDS011;28534;48.100;11.584;2023-02-20T15:17:36;1.80;;;1.00;;
42884;SDS011;28534;48.100;11.584;2023-02-20T15:22:40;4.35;;;0.98;;
42884;SDS011;28534;48.100;11.584;2023-02-20T15:33:06;1.13;;;0.80;;
42884;SDS011;28534;48.100;11.584;2023-02-20T15:38:12;2.65;;;0.90;;
42884;SDS011;28534;48.100;11.584;2023-02-20T15:43:14;1.88;;;1.00;;
42884;SDS011;28534;48.100;11.584;2023-02-20T15:48:16;0.75;;;0.60;;
42884;SDS011;28534;48.100;11.584;2023-02-20T15:53:21;0.93;;;0.73;;
42884;SDS011;28534;48.100;11.584;2023-02-20T15:58:25;3.85;;;1.08;;
42884;SDS011;28534;48.100;11.584;2023-02-20T16:03:29;14.32;;;2.40;;
42884;SDS011;28534;48.100;11.584;2023-02-20T16:08:33;21.77;;;5.50;;
42884;SDS011;28534;48.100;11.584;2023-02-20T16:13:36;40.53;;;16.45;;
42884;SDS011;28534;48.100;11.584;2023-02-20T16:18:41;27.52;;;11.10;;
42884;SDS011;28534;48.100;11.584;2023-02-20T16:23:44;25.65;;;10.80;;
42884;SDS011;28534;48.100;11.584;2023-02-20T16:28:49;27.42;;;11.50;;
42884;SDS011;28534;48.100;11.584;2023-02-20T16:33:54;31.05;;;12.15;;
42884;SDS011;28534;48.100;11.584;2023-02-20T16:38:58;25.83;;;9.90;;
42884;SDS011;28534;48.100;11.584;2023-02-20T16:44:00;26.85;;;10.02;;
42884;SDS011;28534;48.100;11.584;2023-02-20T16:49:01;20.80;;;9.27;;
42884;SDS011;28534;48.100;11.584;2023-02-20T16:54:05;24.48;;;9.35;;
42884;SDS011;28534;48.100;11.584;2023-02-20T16:59:06;28.77;;;9.00;;
42884;SDS011;28534;48.100;11.584;2023-02-20T17:04:09;24.50;;;8.40;;
42884;SDS011;28534;48.100;11.584;2023-02-20T17:09:14;21.38;;;8.25;;
42884;SDS011;28534;48.100;11.584;2023-02-20T17:14:16;19.35;;;7.28;;
42884;SDS011;28534;48.100;11.584;2023-02-20T17:19:18;18.33;;;6.88;;
42884;SDS011;28534;48.100;11.584;2023-02-20T17:24:21;23.85;;;7.32;;
42884;SDS011;28534;48.100;11.584;2023-02-20T17:29:23;18.52;;;6.47;;
42884;SDS011;28534;48.100;11.584;2023-02-20T17:34:26;18.20;;;5.93;;
42884;SDS011;28534;48.100;11.584;2023-02-20T17:39:29;20.73;;;6.22;;
42884;SDS011;28534;48.100;11.584;2023-02-20T17:44:30;16.65;;;5.85;;
42884;SDS011;28534;48.100;11.584;2023-02-20T17:49:32;18.40;;;5.70;;
42884;SDS011;28534;48.100;11.584;2023-02-20T17:54:35;14.63;;;5.32;;
42884;SDS011;28534;48.100;11.584;2023-02-20T17:59:38;19.48;;;5.30;;
42884;SDS011;28534;48.100;11.584;2023-02-20T18:04:41;15.23;;;4.45;;
42884;SDS011;28534;48.100;11.584;2023-02-20T18:09:45;12.38;;;5.60;;
42884;SDS011;28534;48.100;11.584;2023-02-20T18:14:47;17.00;;;5.60;;
42884;SDS011;28534;48.100;11.584;2023-02-20T18:19:48;13.82;;;4.78;;
42884;SDS011;28534;48.100;11.584;2023-02-20T18:24:52;16.20;;;4.90;;
42884;SDS011;28534;48.100;11.584;2023-02-20T18:29:53;15.40;;;4.90;;
42884;SDS011;28534;48.100;11.584;2023-02-20T18:34:55;12.88;;;4.68;;
42884;SDS011;28534;48.100;11.584;2023-02-20T18:39:58;13.05;;;4.82;;
42884;SDS011;28534;48.100;11.584;2023-02-20T18:45:00;13.07;;;4.85;;
42884;SDS011;28534;48.100;11.584;2023-02-20T18:50:02;12.10;;;4.50;;
42884;SDS011;28534;48.100;11.584;2023-02-20T18:55:06;13.80;;;4.78;;
42884;SDS011;28534;48.100;11.584;2023-02-20T19:00:08;14.07;;;4.55;;
42884;SDS011;28534;48.100;11.584;2023-02-20T19:05:11;8.70;;;4.20;;
42884;SDS011;28534;48.100;11.584;2023-02-20T19:10:17;10.38;;;4.38;;
42884;SDS011;28534;48.100;11.584;2023-02-20T19:15:20;13.52;;;4.78;;
42884;SDS011;28534;48.100;11.584;2023-02-20T19:20:24;13.23;;;4.60;;
42884;SDS011;28534;48.100;11.584;2023-02-20T19:25:30;12.45;;;4.72;;
42884;SDS011;28534;48.100;11.584;2023-02-20T19:30:32;10.75;;;4.22;;
42884;SDS011;28534;48.100;11.584;2023-02-20T19:35:34;12.60;;;4.70;;
42884;SDS011;28534;48.100;11.584;2023-02-20T19:40:37;8.23;;;3.90;;
42884;SDS011;28534;48.100;11.584;2023-02-20T19:45:39;9.80;;;3.88;;
42884;SDS011;28534;48.100;11.584;2023-02-20T19:50:41;15.35;;;4.68;;
42884;SDS011;28534;48.100;11.584;2023-02-20T19:55:44;7.70;;;4.05;;
42884;SDS011;28534;48.100;11.584;2023-02-20T20:00:46;11.98;;;3.90;;
42884;SDS011;28534;48.100;11.584;2023-02-20T20:05:47;10.63;;;3.92;;
42884;SDS011;28534;48.100;11.584;2023-02-20T20:10:50;8.20;;;3.80;;
42884;SDS011;28534;48.100;11.584;2023-02-20T20:15:52;9.52;;;4.07;;
42884;SDS011;28534;48.100;11.584;2023-02-20T20:20:54;7.57;;;3.90;;
42884;SDS011;28534;48.100;11.584;2023-02-20T20:25:57;7.20;;;3.80;;
42884;SDS011;28534;48.100;11.584;2023-02-20T20:30:59;9.73;;;3.80;;
42884;SDS011;28534;48.100;11.584;2023-02-20T20:36:01;8.90;;;3.85;;
42884;SDS011;28534;48.100;11.584;2023-02-20T20:41:04;10.73;;;4.05;;
42884;SDS011;28534;48.100;11.584;2023-02-20T20:46:06;7.75;;;3.42;;
42884;SDS011;28534;48.100;11.584;2023-02-20T20:51:09;9.13;;;4.00;;
42884;SDS011;28534;48.100;11.584;2023-02-20T20:56:13;7.65;;;3.38;;
42884;SDS011;28534;48.100;11.584;2023-02-20T21:01:15;7.55;;;3.60;;
42884;SDS011;28534;48.100;11.584;2023-02-20T21:06:17;8.32;;;3.17;;
42884;SDS011;28534;48.100;11.584;2023-02-20T21:11:20;6.13;;;3.55;;
42884;SDS011;28534;48.100;11.584;2023-02-20T21:16:22;5.57;;;3.38;;
42884;SDS011;28534;48.100;11.584;2023-02-20T21:21:24;9.02;;;3.40;;
42884;SDS011;28534;48.100;11.584;2023-02-20T21:26:28;8.27;;;3.28;;
42884;SDS011;28534;48.100;11.584;2023-02-20T21:31:30;8.18;;;3.30;;
42884;SDS011;28534;48.100;11.584;2023-02-20T21:36:32;8.07;;;3.65;;
42884;SDS011;28534;48.100;11.584;2023-02-20T21:41:35;8.23;;;3.60;;
42884;SDS011;28534;48.100;11.584;2023-02-20T21:46:55;6.22;;;3.30;;
42884;SDS011;28534;48.100;11.584;2023-02-20T21:51:58;6.55;;;3.28;;
42884;SDS011;28534;48.100;11.584;2023-02-20T21:57:01;6.13;;;3.40;;
42884;SDS011;28534;48.100;11.584;2023-02-20T22:02:03;6.47;;;3.13;;
42884;SDS011;28534;48.100;11.584;2023-02-20T22:07:04;9.02;;;3.47;;
42884;SDS011;28534;48.100;11.584;2023-02-20T22:12:24;6.55;;;3.25;;
42884;SDS011;28534;48.100;11.584;2023-02-20T22:17:43;5.72;;;3.50;;
42884;SDS011;28534;48.100;11.584;2023-02-20T22:23:03;7.65;;;3.28;;
42884;SDS011;28534;48.100;11.584;2023-02-20T22:28:23;6.72;;;3.38;;
42884;SDS011;28534;48.100;11.584;2023-02-20T22:33:43;7.30;;;3.55;;
42884;SDS011;28534;48.100;11.584;2023-02-20T22:39:02;6.88;;;3.30;;
42884;SDS011;28534;48.100;11.584;2023-02-20T22:44:23;6.28;;;3.20;;
42884;SDS011;28534;48.100;11.584;2023-02-20T22:49:43;4.90;;;2.80;;
42884;SDS011;28534;48.100;11.584;2023-02-20T22:55:02;5.93;;;3.40;;
42884;SDS011;28534;48.100;11.584;2023-02-20T23:00:23;6.53;;;2.88;;
42884;SDS011;28534;48.100;11.584;2023-02-20T23:05:42;5.97;;;2.90;;
42884;SDS011;28534;48.100;11.584;2023-02-20T23:11:01;5.82;;;2.80;;
42884;SDS011;28534;48.100;11.584;2023-02-20T23:16:23;6.18;;;3.10;;
42884;SDS011;28534;48.100;11.584;2023-02-20T23:21:43;6.10;;;3.25;;
42884;SDS011;28534;48.100;11.584;2023-02-20T23:27:02;6.70;;;3.00;;
42884;SDS011;28534;48.100;11.584;2023-02-20T23:32:23;6.38;;;2.95;;
42884;SDS011;28534;48.100;11.584;2023-02-20T23:37:42;5.28;;;2.90;;
42884;SDS011;28534;48.100;11.584;2023-02-20T23:43:01;6.63;;;3.20;;
42884;SDS011;28534;48.100;11.584;2023-02-20T23:48:22;4.18;;;2.78;;
42884;SDS011;28534;48.100;11.584;2023-02-20T23:53:41;4.47;;;2.67;;
42884;SDS011;28534;48.100;11.584;2023-02-20T23:59:01;5.50;;;2.70;;
